createdAt,value
2018-05-12T00:00:17.834Z,43.27
2018-05-12T00:01:17.843Z,43.46
2018-05-12T00:02:18.026Z,43.55
2018-05-12T00:03:17.922Z,43.07
2018-05-12T00:04:17.948Z,42.97
2018-05-12T00:05:17.997Z,42.97
2018-05-12T00:06:18.325Z,43.17
2018-05-12T00:07:18.150Z,43.07
2018-05-12T00:08:18.077Z,43.17
2018-05-12T00:09:18.164Z,43.07
2018-05-12T00:10:18.142Z,43.07
2018-05-12T00:11:18.177Z,43.17
2018-05-12T00:12:18.556Z,42.88
2018-05-12T00:13:18.243Z,42.97
2018-05-12T00:14:18.269Z,42.68
2018-05-12T00:15:18.300Z,42.78
2018-05-12T00:16:18.354Z,42.78
2018-05-12T00:17:18.429Z,42.49
2018-05-12T00:18:18.412Z,42.49
2018-05-12T00:19:18.748Z,42.59
2018-05-12T00:20:18.478Z,42.59
2018-05-12T00:21:18.502Z,42.40
2018-05-12T00:22:18.551Z,42.40
2018-05-12T00:23:18.717Z,42.49
2018-05-12T00:24:18.602Z,42.59
2018-05-12T00:25:18.693Z,42.59
2018-05-12T00:26:18.964Z,42.40
2018-05-12T00:27:18.701Z,42.59
2018-05-12T00:28:18.784Z,42.59
2018-05-12T00:29:18.762Z,42.68
2018-05-12T00:30:18.852Z,42.40
2018-05-12T00:31:18.835Z,42.40
2018-05-12T00:32:19.212Z,42.59
2018-05-12T00:33:18.900Z,42.68
2018-05-12T00:34:18.949Z,42.59
2018-05-12T00:35:18.965Z,42.40
2018-05-12T00:36:18.995Z,42.59
2018-05-12T00:37:19.079Z,42.49
2018-05-12T00:38:19.378Z,42.68
2018-05-12T00:39:19.093Z,42.49
2018-05-12T00:40:19.122Z,42.59
2018-05-12T00:41:19.154Z,42.40
2018-05-12T00:42:19.289Z,42.49
2018-05-12T00:43:19.220Z,42.40
2018-05-12T00:44:19.559Z,42.49
2018-05-12T00:45:19.287Z,42.59
2018-05-12T00:46:19.319Z,42.40
2018-05-12T00:47:19.354Z,42.59
2018-05-12T00:48:19.393Z,42.40
2018-05-12T00:49:19.480Z,42.49
2018-05-12T00:50:19.761Z,42.40
2018-05-12T00:51:19.488Z,42.49
2018-05-12T00:52:19.746Z,42.59
2018-05-12T00:53:19.679Z,42.49
2018-05-12T00:54:19.654Z,42.40
2018-05-12T00:55:19.619Z,42.59
2018-05-12T00:56:19.950Z,42.47
2018-05-12T00:57:19.680Z,42.49
2018-05-12T00:58:19.766Z,42.47
2018-05-12T00:59:19.753Z,42.40
2018-05-12T01:00:19.787Z,42.40
2018-05-12T01:01:19.816Z,42.59
2018-05-12T01:02:19.844Z,42.30
2018-05-12T01:03:20.179Z,42.30
2018-05-12T01:04:19.965Z,42.10
2018-05-12T01:05:19.948Z,42.08
2018-05-12T01:06:19.977Z,42.49
2018-05-12T01:07:20.010Z,42.59
2018-05-12T01:08:20.042Z,42.66
2018-05-12T01:09:20.381Z,42.57
2018-05-12T01:10:20.109Z,42.59
2018-05-12T01:11:20.144Z,42.59
2018-05-12T01:12:20.185Z,42.40
2018-05-12T01:13:20.229Z,42.40
2018-05-12T01:14:20.352Z,42.49
2018-05-12T01:15:20.596Z,42.57
2018-05-12T01:16:20.370Z,42.49
2018-05-12T01:17:20.339Z,42.59
2018-05-12T01:18:20.368Z,42.40
2018-05-12T01:19:20.405Z,42.57
2018-05-12T01:20:20.444Z,42.47
2018-05-12T01:21:20.772Z,42.66
2018-05-12T01:22:20.499Z,42.08
2018-05-12T01:23:20.549Z,42.28
2018-05-12T01:24:20.635Z,41.99
2018-05-12T01:25:20.616Z,42.00
2018-05-12T01:26:20.631Z,42.28
2018-05-12T01:27:20.972Z,42.40
2018-05-12T01:28:20.749Z,42.28
2018-05-12T01:29:20.742Z,42.08
2018-05-12T01:30:20.763Z,42.28
2018-05-12T01:31:20.803Z,42.18
2018-05-12T01:32:20.831Z,42.08
2018-05-12T01:33:21.165Z,42.28
2018-05-12T01:34:21.097Z,41.99
2018-05-12T01:35:20.926Z,42.28
2018-05-12T01:36:20.971Z,41.99
2018-05-12T01:37:21.057Z,41.99
2018-05-12T01:38:21.025Z,42.08
2018-05-12T01:39:21.058Z,42.28
2018-05-12T01:40:21.396Z,42.18
2018-05-12T01:41:21.125Z,42.18
2018-05-12T01:42:21.155Z,42.08
2018-05-12T01:43:21.490Z,42.18
2018-05-12T01:44:21.221Z,42.18
2018-05-12T01:45:21.255Z,42.57
2018-05-12T01:46:21.289Z,42.08
2018-05-12T01:47:21.620Z,42.08
2018-05-12T01:48:21.352Z,42.08
2018-05-12T01:49:21.533Z,42.28
2018-05-12T01:50:21.424Z,41.99
2018-05-12T01:51:21.454Z,42.08
2018-05-12T01:52:21.605Z,42.08
2018-05-12T01:53:21.824Z,41.99
2018-05-12T01:54:21.555Z,41.99
2018-05-12T01:55:21.626Z,42.37
2018-05-12T01:56:21.612Z,42.47
2018-05-12T01:57:21.702Z,42.37
2018-05-12T01:58:21.731Z,42.37
2018-05-12T01:59:22.062Z,42.37
2018-05-12T02:00:21.747Z,42.57
2018-05-12T02:01:21.775Z,42.47
2018-05-12T02:02:21.910Z,42.37
2018-05-12T02:03:21.849Z,42.47
2018-05-12T02:04:21.873Z,42.08
2018-05-12T02:05:22.210Z,42.37
2018-05-12T02:06:21.940Z,42.47
2018-05-12T02:07:22.029Z,42.18
2018-05-12T02:08:22.056Z,42.28
2018-05-12T02:09:22.055Z,41.99
2018-05-12T02:10:22.072Z,42.57
2018-05-12T02:11:22.407Z,42.37
2018-05-12T02:12:22.237Z,41.99
2018-05-12T02:13:22.197Z,42.28
2018-05-12T02:14:22.269Z,42.18
2018-05-12T02:15:22.235Z,42.28
2018-05-12T02:16:22.265Z,42.18
2018-05-12T02:17:22.706Z,42.28
2018-05-12T02:18:22.330Z,42.28
2018-05-12T02:19:22.401Z,42.18
2018-05-12T02:20:22.411Z,42.08
2018-05-12T02:21:22.434Z,42.18
2018-05-12T02:22:22.572Z,42.18
2018-05-12T02:23:22.813Z,42.18
2018-05-12T02:24:22.545Z,42.18
2018-05-12T02:25:22.561Z,42.08
2018-05-12T02:26:22.609Z,42.18
2018-05-12T02:27:22.622Z,42.18
2018-05-12T02:28:22.707Z,41.99
2018-05-12T02:29:23.007Z,42.08
2018-05-12T02:30:22.732Z,41.99
2018-05-12T02:31:22.759Z,41.99
2018-05-12T02:32:22.790Z,42.18
2018-05-12T02:33:22.830Z,42.18
2018-05-12T02:34:22.953Z,42.08
2018-05-12T02:35:22.889Z,42.18
2018-05-12T02:36:23.218Z,42.18
2018-05-12T02:37:23.061Z,42.08
2018-05-12T02:38:22.987Z,42.57
2018-05-12T02:39:23.024Z,42.45
2018-05-12T02:40:23.049Z,42.37
2018-05-12T02:41:23.085Z,42.47
2018-05-12T02:42:23.112Z,42.47
2018-05-12T02:43:23.445Z,42.45
2018-05-12T02:44:23.193Z,42.55
2018-05-12T02:45:23.273Z,42.37
2018-05-12T02:46:23.261Z,42.47
2018-05-12T02:47:23.282Z,42.47
2018-05-12T02:48:23.330Z,42.47
2018-05-12T02:49:23.644Z,42.55
2018-05-12T02:50:23.393Z,42.45
2018-05-12T02:51:23.407Z,42.45
2018-05-12T02:52:23.489Z,42.35
2018-05-12T02:53:23.470Z,42.47
2018-05-12T02:54:23.505Z,42.37
2018-05-12T02:55:23.539Z,42.37
2018-05-12T02:56:23.872Z,42.37
2018-05-12T02:57:23.602Z,42.47
2018-05-12T02:58:23.796Z,42.35
2018-05-12T02:59:23.667Z,42.25
2018-05-12T03:00:23.757Z,42.45
2018-05-12T03:01:23.737Z,42.57
2018-05-12T03:02:23.760Z,42.35
2018-05-12T03:03:24.102Z,42.45
2018-05-12T03:04:23.981Z,42.65
2018-05-12T03:05:23.858Z,42.35
2018-05-12T03:06:23.914Z,42.35
2018-05-12T03:07:23.927Z,42.35
2018-05-12T03:08:23.962Z,42.35
2018-05-12T03:09:23.992Z,42.55
2018-05-12T03:10:24.374Z,42.35
2018-05-12T03:11:24.056Z,42.55
2018-05-12T03:12:24.093Z,42.55
2018-05-12T03:13:24.189Z,42.37
2018-05-12T03:14:24.154Z,42.35
2018-05-12T03:15:24.286Z,42.55
2018-05-12T03:16:24.220Z,42.55
2018-05-12T03:17:24.623Z,42.45
2018-05-12T03:18:24.283Z,42.35
2018-05-12T03:19:24.366Z,42.65
2018-05-12T03:20:24.349Z,42.93
2018-05-12T03:21:24.381Z,42.83
2018-05-12T03:22:24.433Z,42.93
2018-05-12T03:23:24.444Z,42.65
2018-05-12T03:24:24.777Z,42.45
2018-05-12T03:25:24.508Z,42.65
2018-05-12T03:26:24.539Z,42.74
2018-05-12T03:27:24.571Z,42.65
2018-05-12T03:28:24.613Z,42.35
2018-05-12T03:29:24.638Z,42.45
2018-05-12T03:30:24.975Z,42.45
2018-05-12T03:31:24.855Z,42.55
2018-05-12T03:32:24.738Z,42.65
2018-05-12T03:33:24.767Z,42.74
2018-05-12T03:34:24.801Z,42.55
2018-05-12T03:35:24.838Z,42.45
2018-05-12T03:36:25.171Z,42.45
2018-05-12T03:37:24.947Z,42.55
2018-05-12T03:38:24.932Z,42.74
2018-05-12T03:39:24.964Z,42.65
2018-05-12T03:40:24.999Z,42.74
2018-05-12T03:41:25.055Z,42.55
2018-05-12T03:42:25.369Z,42.83
2018-05-12T03:43:25.156Z,42.83
2018-05-12T03:44:25.159Z,42.83
2018-05-12T03:45:25.158Z,42.74
2018-05-12T03:46:25.187Z,42.55
2018-05-12T03:47:25.220Z,42.45
2018-05-12T03:48:25.556Z,42.74
2018-05-12T03:49:25.502Z,42.55
2018-05-12T03:50:25.317Z,42.35
2018-05-12T03:51:25.362Z,42.45
2018-05-12T03:52:25.423Z,42.55
2018-05-12T03:53:25.414Z,42.35
2018-05-12T03:54:25.453Z,42.45
2018-05-12T03:55:25.779Z,42.45
2018-05-12T03:56:25.512Z,42.55
2018-05-12T03:57:25.545Z,42.55
2018-05-12T03:58:25.860Z,42.45
2018-05-12T03:59:25.964Z,42.45
2018-05-12T04:00:25.659Z,42.45
2018-05-12T04:01:26.033Z,42.74
2018-05-12T04:02:25.714Z,42.35
2018-05-12T04:03:25.741Z,42.45
2018-05-12T04:04:25.842Z,42.25
2018-05-12T04:05:25.800Z,42.45
2018-05-12T04:06:25.836Z,42.45
2018-05-12T04:07:26.166Z,42.55
2018-05-12T04:08:25.914Z,42.35
2018-05-12T04:09:25.935Z,42.35
2018-05-12T04:10:26.070Z,42.55
2018-05-12T04:11:26.051Z,42.45
2018-05-12T04:12:26.031Z,42.45
2018-05-12T04:13:26.364Z,42.45
2018-05-12T04:14:26.111Z,42.55
2018-05-12T04:15:26.227Z,42.55
2018-05-12T04:16:26.204Z,42.35
2018-05-12T04:17:26.199Z,42.43
2018-05-12T04:18:26.223Z,42.55
2018-05-12T04:19:26.557Z,42.65
2018-05-12T04:20:26.289Z,42.33
2018-05-12T04:21:26.368Z,42.35
2018-05-12T04:22:26.351Z,42.35
2018-05-12T04:23:26.384Z,42.45
2018-05-12T04:24:26.413Z,42.35
2018-05-12T04:25:26.761Z,42.35
2018-05-12T04:26:26.482Z,42.43
2018-05-12T04:27:26.512Z,42.45
2018-05-12T04:28:26.550Z,42.35
2018-05-12T04:29:26.582Z,42.33
2018-05-12T04:30:26.607Z,42.35
2018-05-12T04:31:26.939Z,42.45
2018-05-12T04:32:26.696Z,42.45
2018-05-12T04:33:26.957Z,42.35
2018-05-12T04:34:26.752Z,42.65
2018-05-12T04:35:26.770Z,42.62
2018-05-12T04:36:26.809Z,42.43
2018-05-12T04:37:27.141Z,42.35
2018-05-12T04:38:26.867Z,42.43
2018-05-12T04:39:26.948Z,42.55
2018-05-12T04:40:26.939Z,42.65
2018-05-12T04:41:26.962Z,42.52
2018-05-12T04:42:27.012Z,42.55
2018-05-12T04:43:27.334Z,42.35
2018-05-12T04:44:27.076Z,42.45
2018-05-12T04:45:27.094Z,42.45
2018-05-12T04:46:27.143Z,42.45
2018-05-12T04:47:27.156Z,42.35
2018-05-12T04:48:27.223Z,42.55
2018-05-12T04:49:27.222Z,42.45
2018-05-12T04:50:27.706Z,42.52
2018-05-12T04:51:27.289Z,42.35
2018-05-12T04:52:27.336Z,42.35
2018-05-12T04:53:27.351Z,42.35
2018-05-12T04:54:27.392Z,42.65
2018-05-12T04:55:27.418Z,42.93
2018-05-12T04:56:27.796Z,43.03
2018-05-12T04:57:27.480Z,42.72
2018-05-12T04:58:27.535Z,43.10
2018-05-12T04:59:27.546Z,43.23
2018-05-12T05:00:27.594Z,43.23
2018-05-12T05:01:27.607Z,42.93
2018-05-12T05:02:27.991Z,43.32
2018-05-12T05:03:27.679Z,43.51
2018-05-12T05:04:27.715Z,43.13
2018-05-12T05:05:27.738Z,43.41
2018-05-12T05:06:27.801Z,43.23
2018-05-12T05:07:27.816Z,43.10
2018-05-12T05:08:28.136Z,43.61
2018-05-12T05:09:27.872Z,43.41
2018-05-12T05:10:27.911Z,43.68
2018-05-12T05:11:27.985Z,43.78
2018-05-12T05:12:28.052Z,43.61
2018-05-12T05:13:28.011Z,43.68
2018-05-12T05:14:28.443Z,43.68
2018-05-12T05:15:28.069Z,43.59
2018-05-12T05:16:28.099Z,43.88
2018-05-12T05:17:28.328Z,43.68
2018-05-12T05:18:28.157Z,43.78
2018-05-12T05:19:28.192Z,43.88
2018-05-12T05:20:28.527Z,44.07
2018-05-12T05:21:28.276Z,44.26
2018-05-12T05:22:28.287Z,43.68
2018-05-12T05:23:28.370Z,43.78
2018-05-12T05:24:28.351Z,43.78
2018-05-12T05:25:28.388Z,43.78
2018-05-12T05:26:28.796Z,43.78
2018-05-12T05:27:28.450Z,43.88
2018-05-12T05:28:28.497Z,43.88
2018-05-12T05:29:28.517Z,43.98
2018-05-12T05:30:28.545Z,44.07
2018-05-12T05:31:28.577Z,44.26
2018-05-12T05:32:29.117Z,44.07
2018-05-12T05:33:28.741Z,44.36
2018-05-12T05:34:28.675Z,44.36
2018-05-12T05:35:28.706Z,44.36
2018-05-12T05:36:28.740Z,44.36
2018-05-12T05:37:28.863Z,44.36
2018-05-12T05:38:29.154Z,44.36
2018-05-12T05:39:28.838Z,44.36
2018-05-12T05:40:28.869Z,44.36
2018-05-12T05:41:28.898Z,44.36
2018-05-12T05:42:28.935Z,44.36
2018-05-12T05:43:29.016Z,44.36
2018-05-12T05:44:29.297Z,44.36
2018-05-12T05:45:29.031Z,44.46
2018-05-12T05:46:29.076Z,44.26
2018-05-12T05:47:29.095Z,44.56
2018-05-12T05:48:29.233Z,44.36
2018-05-12T05:49:29.159Z,44.17
2018-05-12T05:50:29.494Z,44.17
2018-05-12T05:51:29.227Z,44.26
2018-05-12T05:52:29.268Z,44.17
2018-05-12T05:53:29.341Z,44.17
2018-05-12T05:54:29.323Z,44.17
2018-05-12T05:55:29.354Z,44.17
2018-05-12T05:56:29.693Z,44.17
2018-05-12T05:57:29.442Z,44.17
2018-05-12T05:58:29.580Z,44.17
2018-05-12T05:59:29.479Z,44.07
2018-05-12T06:00:29.511Z,44.26
2018-05-12T06:01:29.543Z,44.17
2018-05-12T06:02:29.877Z,44.17
2018-05-12T06:03:29.610Z,44.17
2018-05-12T06:04:29.641Z,44.19
2018-05-12T06:05:29.674Z,44.17
2018-05-12T06:06:29.710Z,44.09
2018-05-12T06:07:29.740Z,44.17
2018-05-12T06:08:30.329Z,44.19
2018-05-12T06:09:29.810Z,44.09
2018-05-12T06:10:29.850Z,44.29
2018-05-12T06:11:29.880Z,44.19
2018-05-12T06:12:29.914Z,44.19
2018-05-12T06:13:29.931Z,44.09
2018-05-12T06:14:30.271Z,44.19
2018-05-12T06:15:29.994Z,44.09
2018-05-12T06:16:30.029Z,44.19
2018-05-12T06:17:30.088Z,44.19
2018-05-12T06:18:30.196Z,44.19
2018-05-12T06:19:30.125Z,44.09
2018-05-12T06:20:30.474Z,44.19
2018-05-12T06:21:30.190Z,44.29
2018-05-12T06:22:30.235Z,44.38
2018-05-12T06:23:30.254Z,44.29
2018-05-12T06:24:30.387Z,44.29
2018-05-12T06:25:30.320Z,44.19
2018-05-12T06:26:30.664Z,44.19
2018-05-12T06:27:30.386Z,44.38
2018-05-12T06:28:30.430Z,44.38
2018-05-12T06:29:30.449Z,44.38
2018-05-12T06:30:30.560Z,44.38
2018-05-12T06:31:30.521Z,44.19
2018-05-12T06:32:30.849Z,44.38
2018-05-12T06:33:30.602Z,44.38
2018-05-12T06:34:30.616Z,44.48
2018-05-12T06:35:30.652Z,44.48
2018-05-12T06:36:30.727Z,44.29
2018-05-12T06:37:30.710Z,44.19
2018-05-12T06:38:31.045Z,44.57
2018-05-12T06:39:30.776Z,44.48
2018-05-12T06:40:30.806Z,44.48
2018-05-12T06:41:30.843Z,44.50
2018-05-12T06:42:30.875Z,44.57
2018-05-12T06:43:30.903Z,44.50
2018-05-12T06:44:31.344Z,44.40
2018-05-12T06:45:31.009Z,44.19
2018-05-12T06:46:31.004Z,44.21
2018-05-12T06:47:31.039Z,44.40
2018-05-12T06:48:31.078Z,44.31
2018-05-12T06:49:31.149Z,44.40
2018-05-12T06:50:31.438Z,44.40
2018-05-12T06:51:31.164Z,44.21
2018-05-12T06:52:31.203Z,44.21
2018-05-12T06:53:31.230Z,44.31
2018-05-12T06:54:31.264Z,44.31
2018-05-12T06:55:31.303Z,44.50
2018-05-12T06:56:31.631Z,44.50
2018-05-12T06:57:31.360Z,44.60
2018-05-12T06:58:31.402Z,44.21
2018-05-12T06:59:31.428Z,43.92
2018-05-12T07:00:31.560Z,44.02
2018-05-12T07:01:31.492Z,43.92
2018-05-12T07:02:31.826Z,43.92
2018-05-12T07:03:31.608Z,43.82
2018-05-12T07:04:31.596Z,43.73
2018-05-12T07:05:31.628Z,43.73
2018-05-12T07:06:31.657Z,43.82
2018-05-12T07:07:31.697Z,44.12
2018-05-12T07:08:32.022Z,43.54
2018-05-12T07:09:31.807Z,43.63
2018-05-12T07:10:31.786Z,44.02
2018-05-12T07:11:31.822Z,43.44
2018-05-12T07:12:31.857Z,43.65
2018-05-12T07:13:31.990Z,43.85
2018-05-12T07:14:32.220Z,43.65
2018-05-12T07:15:31.955Z,43.75
2018-05-12T07:16:31.988Z,43.85
2018-05-12T07:17:32.025Z,43.46
2018-05-12T07:18:32.054Z,43.37
2018-05-12T07:19:32.483Z,43.44
2018-05-12T07:20:32.418Z,43.46
2018-05-12T07:21:32.153Z,43.46
2018-05-12T07:22:32.182Z,43.27
2018-05-12T07:23:32.220Z,43.46
2018-05-12T07:24:32.249Z,43.46
2018-05-12T07:25:32.282Z,43.17
2018-05-12T07:26:32.618Z,43.17
2018-05-12T07:27:32.350Z,43.17
2018-05-12T07:28:32.383Z,43.27
2018-05-12T07:29:32.418Z,43.17
2018-05-12T07:30:32.449Z,43.17
2018-05-12T07:31:32.481Z,43.27
2018-05-12T07:32:32.823Z,43.07
2018-05-12T07:33:32.547Z,43.46
2018-05-12T07:34:32.582Z,43.27
2018-05-12T07:35:32.612Z,43.07
2018-05-12T07:36:32.644Z,43.07
2018-05-12T07:37:32.679Z,43.17
2018-05-12T07:38:33.014Z,43.27
2018-05-12T07:39:32.957Z,43.37
2018-05-12T07:40:32.785Z,43.65
2018-05-12T07:41:32.814Z,43.95
2018-05-12T07:42:32.845Z,44.43
2018-05-12T07:43:32.887Z,44.53
2018-05-12T07:44:33.214Z,44.53
2018-05-12T07:45:33.108Z,44.43
2018-05-12T07:46:32.976Z,44.33
2018-05-12T07:47:33.068Z,44.43
2018-05-12T07:48:33.042Z,44.33
2018-05-12T07:49:33.081Z,44.53
2018-05-12T07:50:33.411Z,44.23
2018-05-12T07:51:33.161Z,43.85
2018-05-12T07:52:33.226Z,44.43
2018-05-12T07:53:33.209Z,44.62
2018-05-12T07:54:33.243Z,44.04
2018-05-12T07:55:33.275Z,43.85
2018-05-12T07:56:33.608Z,44.04
2018-05-12T07:57:33.492Z,43.65
2018-05-12T07:58:33.374Z,43.65
2018-05-12T07:59:33.420Z,43.87
2018-05-12T08:00:33.454Z,43.77
2018-05-12T08:01:33.561Z,43.87
2018-05-12T08:02:33.837Z,43.68
2018-05-12T08:03:33.781Z,43.77
2018-05-12T08:04:33.576Z,43.68
2018-05-12T08:05:33.629Z,43.68
2018-05-12T08:06:33.640Z,43.19
2018-05-12T08:07:33.674Z,43.29
2018-05-12T08:08:34.028Z,43.29
2018-05-12T08:09:33.739Z,43.58
2018-05-12T08:10:33.775Z,43.48
2018-05-12T08:11:33.807Z,43.58
2018-05-12T08:12:33.844Z,43.29
2018-05-12T08:13:33.871Z,43.09
2018-05-12T08:14:34.208Z,43.29
2018-05-12T08:15:34.089Z,43.29
2018-05-12T08:16:33.972Z,43.19
2018-05-12T08:17:34.005Z,43.19
2018-05-12T08:18:34.039Z,43.48
2018-05-12T08:19:34.076Z,43.29
2018-05-12T08:20:34.436Z,43.09
2018-05-12T08:21:34.290Z,43.58
2018-05-12T08:22:34.180Z,42.80
2018-05-12T08:23:34.208Z,43.09
2018-05-12T08:24:34.253Z,42.71
2018-05-12T08:25:34.290Z,43.00
2018-05-12T08:26:34.607Z,43.09
2018-05-12T08:27:34.443Z,42.90
2018-05-12T08:28:34.381Z,42.51
2018-05-12T08:29:34.408Z,42.32
2018-05-12T08:30:34.443Z,42.13
2018-05-12T08:31:34.555Z,42.51
2018-05-12T08:32:34.809Z,42.14
2018-05-12T08:33:34.741Z,42.24
2018-05-12T08:34:34.573Z,42.72
2018-05-12T08:35:34.623Z,42.54
2018-05-12T08:36:34.645Z,42.63
2018-05-12T08:37:34.690Z,42.24
2018-05-12T08:38:35.010Z,42.63
2018-05-12T08:39:34.752Z,42.05
2018-05-12T08:40:34.888Z,42.24
2018-05-12T08:41:34.822Z,41.93
2018-05-12T08:42:34.850Z,42.34
2018-05-12T08:43:34.880Z,42.34
2018-05-12T08:44:35.213Z,42.34
2018-05-12T08:45:34.996Z,42.14
2018-05-12T08:46:34.980Z,42.24
2018-05-12T08:47:35.014Z,42.24
2018-05-12T08:48:35.046Z,42.14
2018-05-12T08:49:35.130Z,42.14
2018-05-12T08:50:35.113Z,42.14
2018-05-12T08:51:35.154Z,42.24
2018-05-12T08:52:35.206Z,42.14
2018-05-12T08:53:35.219Z,41.86
2018-05-12T08:54:35.263Z,41.86
2018-05-12T08:55:35.584Z,42.05
2018-05-12T08:56:35.319Z,42.05
2018-05-12T08:57:35.405Z,42.05
2018-05-12T08:58:35.385Z,42.14
2018-05-12T08:59:35.416Z,42.34
2018-05-12T09:00:35.505Z,42.54
2018-05-12T09:01:35.809Z,42.44
2018-05-12T09:02:35.518Z,42.44
2018-05-12T09:03:35.555Z,42.63
2018-05-12T09:04:35.702Z,42.63
2018-05-12T09:05:35.623Z,42.63
2018-05-12T09:06:35.682Z,42.54
2018-05-12T09:07:36.018Z,42.72
2018-05-12T09:08:35.723Z,42.44
2018-05-12T09:09:35.764Z,42.63
2018-05-12T09:10:35.788Z,42.34
2018-05-12T09:11:35.823Z,42.72
2018-05-12T09:12:35.857Z,42.14
2018-05-12T09:13:36.194Z,42.34
2018-05-12T09:14:35.977Z,42.05
2018-05-12T09:15:35.974Z,42.05
2018-05-12T09:16:35.991Z,42.05
2018-05-12T09:17:36.032Z,42.05
2018-05-12T09:18:36.089Z,42.14
2018-05-12T09:19:36.524Z,43.70
2018-05-12T09:20:36.131Z,43.99
2018-05-12T09:21:36.161Z,43.70
2018-05-12T09:22:36.195Z,43.41
2018-05-12T09:23:36.232Z,43.12
2018-05-12T09:24:36.330Z,43.02
2018-05-12T09:25:36.684Z,42.72
2018-05-12T09:26:36.349Z,42.72
2018-05-12T09:27:36.364Z,42.44
2018-05-12T09:28:36.407Z,42.54
2018-05-12T09:29:36.483Z,42.44
2018-05-12T09:30:36.496Z,42.17
2018-05-12T09:31:36.807Z,42.24
2018-05-12T09:32:36.547Z,42.05
2018-05-12T09:33:36.574Z,41.27
2018-05-12T09:34:36.774Z,42.26
2018-05-12T09:35:36.639Z,42.05
2018-05-12T09:36:36.675Z,41.95
2018-05-12T09:37:37.011Z,41.95
2018-05-12T09:38:36.746Z,42.05
2018-05-12T09:39:36.777Z,42.07
2018-05-12T09:40:36.807Z,41.76
2018-05-12T09:41:36.841Z,41.86
2018-05-12T09:42:36.927Z,41.86
2018-05-12T09:43:37.211Z,42.05
2018-05-12T09:44:37.042Z,41.95
2018-05-12T09:45:36.985Z,42.17
2018-05-12T09:46:37.035Z,42.14
2018-05-12T09:47:37.070Z,41.27
2018-05-12T09:48:37.084Z,39.92
2018-05-12T09:49:37.469Z,40.31
2018-05-12T09:50:37.148Z,40.69
2018-05-12T09:51:37.181Z,40.52
2018-05-12T09:52:37.217Z,41.17
2018-05-12T09:53:37.251Z,41.00
2018-05-12T09:54:37.284Z,41.20
2018-05-12T09:55:37.622Z,41.39
2018-05-12T09:56:37.357Z,41.68
2018-05-12T09:57:37.384Z,41.78
2018-05-12T09:58:37.419Z,41.66
2018-05-12T09:59:37.508Z,41.58
2018-05-12T10:00:37.491Z,41.66
2018-05-12T10:01:37.825Z,40.69
2018-05-12T10:02:37.556Z,40.79
2018-05-12T10:03:37.597Z,40.52
2018-05-12T10:04:37.784Z,41.10
2018-05-12T10:05:37.670Z,39.06
2018-05-12T10:06:37.718Z,39.55
2018-05-12T10:07:38.061Z,39.84
2018-05-12T10:08:37.779Z,40.52
2018-05-12T10:09:37.885Z,40.13
2018-05-12T10:10:37.831Z,40.42
2018-05-12T10:11:37.867Z,40.52
2018-05-12T10:12:37.907Z,40.71
2018-05-12T10:13:38.237Z,40.71
2018-05-12T10:14:37.975Z,40.61
2018-05-12T10:15:38.125Z,40.71
2018-05-12T10:16:38.094Z,40.71
2018-05-12T10:17:38.073Z,40.81
2018-05-12T10:18:38.104Z,40.71
2018-05-12T10:19:38.502Z,40.42
2018-05-12T10:20:38.172Z,40.33
2018-05-12T10:21:38.212Z,40.23
2018-05-12T10:22:38.240Z,40.42
2018-05-12T10:23:38.277Z,40.33
2018-05-12T10:24:38.460Z,40.23
2018-05-12T10:25:38.643Z,40.23
2018-05-12T10:26:38.377Z,40.42
2018-05-12T10:27:38.414Z,40.03
2018-05-12T10:28:38.451Z,39.74
2018-05-12T10:29:38.533Z,39.94
2018-05-12T10:30:38.572Z,39.55
2018-05-12T10:31:38.850Z,39.74
2018-05-12T10:32:38.586Z,39.45
2018-05-12T10:33:38.634Z,39.55
2018-05-12T10:34:38.651Z,39.55
2018-05-12T10:35:38.948Z,39.45
2018-05-12T10:36:38.726Z,39.55
2018-05-12T10:37:39.053Z,39.36
2018-05-12T10:38:38.789Z,39.74
2018-05-12T10:39:38.829Z,39.84
2018-05-12T10:40:38.865Z,39.84
2018-05-12T10:41:38.910Z,39.45
2018-05-12T10:42:38.942Z,39.74
2018-05-12T10:43:39.280Z,39.84
2018-05-12T10:44:39.000Z,39.36
2018-05-12T10:45:39.040Z,39.55
2018-05-12T10:46:39.368Z,39.65
2018-05-12T10:47:39.105Z,39.45
2018-05-12T10:48:39.134Z,39.55
2018-05-12T10:49:39.466Z,39.55
2018-05-12T10:50:39.203Z,39.55
2018-05-12T10:51:39.256Z,39.65
2018-05-12T10:52:39.320Z,39.74
2018-05-12T10:53:39.314Z,39.45
2018-05-12T10:54:39.345Z,39.74
2018-05-12T10:55:39.684Z,39.45
2018-05-12T10:56:39.544Z,39.74
2018-05-12T10:57:39.460Z,39.26
2018-05-12T10:58:39.476Z,39.26
2018-05-12T10:59:39.521Z,39.36
2018-05-12T11:00:39.564Z,39.45
2018-05-12T11:01:39.901Z,39.36
2018-05-12T11:02:40.137Z,39.16
2018-05-12T11:03:39.712Z,39.26
2018-05-12T11:04:39.688Z,39.26
2018-05-12T11:05:39.734Z,38.96
2018-05-12T11:06:39.803Z,38.89
2018-05-12T11:07:40.094Z,39.18
2018-05-12T11:08:39.851Z,39.18
2018-05-12T11:09:39.979Z,39.18
2018-05-12T11:10:39.892Z,39.08
2018-05-12T11:11:39.939Z,38.79
2018-05-12T11:12:39.963Z,39.08
2018-05-12T11:13:40.332Z,38.79
2018-05-12T11:14:40.031Z,38.89
2018-05-12T11:15:40.068Z,38.50
2018-05-12T11:16:40.220Z,39.08
2018-05-12T11:17:40.134Z,38.99
2018-05-12T11:18:40.172Z,39.08
2018-05-12T11:19:40.502Z,38.99
2018-05-12T11:20:40.243Z,38.89
2018-05-12T11:21:40.435Z,38.89
2018-05-12T11:22:40.307Z,38.89
2018-05-12T11:23:40.343Z,39.08
2018-05-12T11:24:40.398Z,38.40
2018-05-12T11:25:40.717Z,38.12
2018-05-12T11:26:40.499Z,37.92
2018-05-12T11:27:40.579Z,37.92
2018-05-12T11:28:40.533Z,37.43
2018-05-12T11:29:40.559Z,37.92
2018-05-12T11:30:40.600Z,37.92
2018-05-12T11:31:40.731Z,37.92
2018-05-12T11:32:40.663Z,37.82
2018-05-12T11:33:40.707Z,37.92
2018-05-12T11:34:40.729Z,37.92
2018-05-12T11:35:40.765Z,38.12
2018-05-12T11:36:41.137Z,38.02
2018-05-12T11:37:40.834Z,37.92
2018-05-12T11:38:40.885Z,37.53
2018-05-12T11:39:40.901Z,37.34
2018-05-12T11:40:40.957Z,37.26
2018-05-12T11:41:41.065Z,37.63
2018-05-12T11:42:41.321Z,37.34
2018-05-12T11:43:41.036Z,37.43
2018-05-12T11:44:41.299Z,37.65
2018-05-12T11:45:41.121Z,37.55
2018-05-12T11:46:41.501Z,37.65
2018-05-12T11:47:41.181Z,37.55
2018-05-12T11:48:46.228Z,37.94
2018-05-12T11:49:41.258Z,37.84
2018-05-12T11:50:41.342Z,37.94
2018-05-12T11:51:41.583Z,37.94
2018-05-12T11:52:41.417Z,37.94
2018-05-12T11:53:41.449Z,37.74
2018-05-12T11:54:41.819Z,37.94
2018-05-12T11:55:41.545Z,38.13
2018-05-12T11:56:41.506Z,38.04
2018-05-12T11:57:41.582Z,38.04
2018-05-12T11:58:41.684Z,37.94
2018-05-12T11:59:41.615Z,37.94
2018-05-12T12:00:41.968Z,38.04
2018-05-12T12:01:41.711Z,38.13
2018-05-12T12:02:41.748Z,37.94
2018-05-12T12:03:41.812Z,37.96
2018-05-12T12:04:41.845Z,37.94
2018-05-12T12:05:41.812Z,38.23
2018-05-12T12:06:42.249Z,38.25
2018-05-12T12:07:41.948Z,38.13
2018-05-12T12:08:41.942Z,38.06
2018-05-12T12:09:42.075Z,38.15
2018-05-12T12:10:41.995Z,38.06
2018-05-12T12:11:42.035Z,38.06
2018-05-12T12:12:42.363Z,38.06
2018-05-12T12:13:42.165Z,38.15
2018-05-12T12:14:42.134Z,38.15
2018-05-12T12:15:42.196Z,38.15
2018-05-12T12:16:42.361Z,38.15
2018-05-12T12:17:42.387Z,38.06
2018-05-12T12:18:42.573Z,38.06
2018-05-12T12:19:42.307Z,38.06
2018-05-12T12:20:42.500Z,38.15
2018-05-12T12:21:42.390Z,38.15
2018-05-12T12:22:42.479Z,38.15
2018-05-12T12:23:42.453Z,38.06
2018-05-12T12:24:42.799Z,38.06
2018-05-12T12:25:42.635Z,38.15
2018-05-12T12:26:42.549Z,37.86
2018-05-12T12:27:42.588Z,38.06
2018-05-12T12:28:42.688Z,38.06
2018-05-12T12:29:43.004Z,37.96
2018-05-12T12:30:42.993Z,38.06
2018-05-12T12:31:42.778Z,37.96
2018-05-12T12:32:42.873Z,38.06
2018-05-12T12:33:42.845Z,37.96
2018-05-12T12:34:42.901Z,38.06
2018-05-12T12:35:42.886Z,38.34
2018-05-12T12:36:43.206Z,37.98
2018-05-12T12:37:42.941Z,38.06
2018-05-12T12:38:43.004Z,38.07
2018-05-12T12:39:43.113Z,38.06
2018-05-12T12:40:43.061Z,37.88
2018-05-12T12:41:43.111Z,37.98
2018-05-12T12:42:43.551Z,37.98
2018-05-12T12:43:43.149Z,37.98
2018-05-12T12:44:43.201Z,37.88
2018-05-12T12:45:43.270Z,37.98
2018-05-12T12:46:43.294Z,37.98
2018-05-12T12:47:43.292Z,37.98
2018-05-12T12:48:43.635Z,37.88
2018-05-12T12:49:43.369Z,37.78
2018-05-12T12:50:43.456Z,37.78
2018-05-12T12:51:43.506Z,37.78
2018-05-12T12:52:43.471Z,38.07